createdAt,value
2023-04-28T00:00:05.250Z,7.17
2023-04-28T00:02:33.653Z,6.97
2023-04-28T00:05:00.463Z,6.97
2023-04-28T00:07:27.224Z,6.82
2023-04-28T00:09:54.368Z,6.77
2023-04-28T00:12:21.084Z,6.88
2023-04-28T00:14:47.812Z,7.00
2023-04-28T00:17:14.628Z,6.96
2023-04-28T00:19:41.603Z,7.12
2023-04-28T00:22:09.033Z,7.34
2023-04-28T00:24:36.090Z,7.32
2023-04-28T00:27:03.145Z,7.31
2023-04-28T00:29:30.209Z,7.29
2023-04-28T00:31:57.060Z,7.21
2023-04-28T00:34:24.007Z,7.17
2023-04-28T00:36:50.972Z,7.25
2023-04-28T00:39:18.058Z,7.09
2023-04-28T00:41:44.827Z,6.75
2023-04-28T00:44:11.727Z,7.00
2023-04-28T00:46:38.533Z,6.95
2023-04-28T00:49:05.692Z,6.95
2023-04-28T00:51:33.166Z,7.06
2023-04-28T00:53:59.953Z,6.99
2023-04-28T00:56:27.922Z,6.82
2023-04-28T00:58:54.819Z,6.93
2023-04-28T01:01:22.069Z,6.97
2023-04-28T01:03:49.212Z,6.67
2023-04-28T01:06:17.157Z,6.52
2023-04-28T01:08:50.417Z,6.61
2023-04-28T01:11:17.830Z,6.67
2023-04-28T01:14:10.702Z,6.77
2023-04-28T01:16:39.144Z,6.76
2023-04-28T01:19:13.953Z,6.70
2023-04-28T01:21:40.813Z,6.29
2023-04-28T01:24:18.733Z,6.38
2023-04-28T01:26:45.846Z,6.46
2023-04-28T01:29:12.667Z,6.30
2023-04-28T01:31:40.576Z,6.34
2023-04-28T01:34:07.427Z,6.13
2023-04-28T01:36:37.540Z,6.02
2023-04-28T01:39:05.336Z,5.88
2023-04-28T01:41:33.904Z,5.88
2023-04-28T01:44:00.705Z,5.90
2023-04-28T01:46:27.489Z,5.90
2023-04-28T01:48:54.251Z,6.02
2023-04-28T01:51:20.959Z,5.93
2023-04-28T01:53:47.741Z,5.99
2023-04-28T01:56:14.593Z,5.96
2023-04-28T01:58:42.324Z,5.99
2023-04-28T02:01:09.243Z,5.85
2023-04-28T02:03:36.474Z,5.79
2023-04-28T02:06:04.318Z,5.86
2023-04-28T02:08:31.641Z,6.07
2023-04-28T02:10:58.414Z,6.18
2023-04-28T02:13:25.618Z,6.16
2023-04-28T02:15:53.315Z,6.03
2023-04-28T02:18:21.405Z,6.09
2023-04-28T02:20:48.086Z,6.00
2023-04-28T02:23:14.845Z,6.05
2023-04-28T02:25:41.834Z,5.97
2023-04-28T02:28:12.613Z,6.10
2023-04-28T02:30:39.338Z,6.13
2023-04-28T02:33:06.147Z,6.14
2023-04-28T02:35:33.613Z,6.04
2023-04-28T02:38:00.375Z,6.03
2023-04-28T02:40:27.113Z,6.08
2023-04-28T02:42:53.856Z,6.06
2023-04-28T02:45:20.649Z,5.85
2023-04-28T02:47:47.457Z,5.79
2023-04-28T02:50:14.250Z,5.84
2023-04-28T02:52:41.056Z,5.94
2023-04-28T02:55:08.147Z,6.03
2023-04-28T02:57:34.993Z,5.99
2023-04-28T03:00:02.345Z,6.11
2023-04-28T03:02:33.204Z,6.25
2023-04-28T03:05:00.124Z,6.32
2023-04-28T03:07:26.938Z,6.25
2023-04-28T03:09:53.632Z,6.18
2023-04-28T03:12:20.449Z,6.40
2023-04-28T03:14:47.173Z,6.29
2023-04-28T03:17:13.957Z,6.35
2023-04-28T03:19:40.827Z,6.36
2023-04-28T03:22:07.506Z,6.45
2023-04-28T03:24:34.228Z,6.53
2023-04-28T03:27:03.084Z,6.61
2023-04-28T03:29:30.101Z,6.63
2023-04-28T03:31:56.884Z,6.90
2023-04-28T03:34:23.721Z,7.04
2023-04-28T03:36:50.849Z,6.93
2023-04-28T03:39:23.225Z,7.13
2023-04-28T03:41:50.117Z,7.30
2023-04-28T03:44:55.260Z,7.74
2023-04-28T03:47:22.063Z,7.73
2023-04-28T03:49:49.005Z,7.82
2023-04-28T03:52:15.786Z,7.98
2023-04-28T03:54:42.576Z,8.16
2023-04-28T03:57:10.025Z,8.38
2023-04-28T03:59:36.765Z,8.77
2023-04-28T04:02:03.991Z,9.03
2023-04-28T04:04:31.006Z,9.36
2023-04-28T04:06:58.407Z,9.45
2023-04-28T04:09:25.318Z,9.64
2023-04-28T04:11:52.143Z,9.55
2023-04-28T04:14:19.089Z,9.98
2023-04-28T04:16:47.127Z,10.10
2023-04-28T04:19:13.804Z,10.17
2023-04-28T04:21:41.660Z,10.32
2023-04-28T04:24:09.941Z,10.46
2023-04-28T04:26:37.420Z,10.37
2023-04-28T04:29:13.975Z,10.55
2023-04-28T04:31:40.835Z,10.69
2023-04-28T04:34:07.773Z,11.02
2023-04-28T04:36:34.507Z,11.38
2023-04-28T04:39:01.543Z,11.75
2023-04-28T04:41:28.481Z,11.86
2023-04-28T04:44:07.716Z,11.80
2023-04-28T04:46:37.980Z,11.95
2023-04-28T04:49:04.746Z,11.86
2023-04-28T04:51:31.604Z,11.99
2023-04-28T04:53:58.350Z,11.87
2023-04-28T04:56:25.292Z,12.17
2023-04-28T04:58:52.149Z,12.66
2023-04-28T05:01:44.883Z,12.87
2023-04-28T05:04:12.670Z,13.19
2023-04-28T05:06:40.057Z,13.10
2023-04-28T05:09:06.861Z,12.59
2023-04-28T05:11:33.755Z,12.77
2023-04-28T05:14:00.557Z,12.84
2023-04-28T05:16:28.566Z,13.21
2023-04-28T05:19:15.801Z,13.37
2023-04-28T05:21:42.637Z,13.75
2023-04-28T05:24:09.521Z,13.54
2023-04-28T05:26:36.323Z,13.65
2023-04-28T05:29:06.329Z,13.86
2023-04-28T05:31:33.140Z,13.94
2023-04-28T05:34:00.331Z,13.89
2023-04-28T05:36:27.726Z,14.17
2023-04-28T05:38:54.603Z,14.84
2023-04-28T05:41:21.489Z,15.33
2023-04-28T05:43:50.457Z,14.50
2023-04-28T05:46:29.122Z,14.41
2023-04-28T05:48:57.316Z,14.81
2023-04-28T05:51:24.132Z,15.20
2023-04-28T05:53:51.416Z,15.35
2023-04-28T05:56:18.698Z,15.05
2023-04-28T05:58:46.696Z,15.20
2023-04-28T06:01:13.489Z,14.71
2023-04-28T06:03:44.453Z,15.24
2023-04-28T06:06:11.478Z,15.12
2023-04-28T06:08:38.365Z,15.37
2023-04-28T06:11:06.223Z,15.19
2023-04-28T06:13:33.107Z,14.60
2023-04-28T06:16:00.074Z,14.58
2023-04-28T06:18:31.853Z,15.07
2023-04-28T06:21:01.004Z,15.32
2023-04-28T06:23:28.624Z,15.16
2023-04-28T06:25:55.382Z,15.34
2023-04-28T06:28:22.069Z,15.65
2023-04-28T06:30:48.807Z,15.66
2023-04-28T06:33:15.623Z,15.88
2023-04-28T06:35:42.383Z,15.92
2023-04-28T06:38:09.281Z,15.96
2023-04-28T06:40:37.534Z,16.17
2023-04-28T06:43:06.249Z,16.04
2023-04-28T06:45:41.258Z,16.15
2023-04-28T06:48:08.900Z,16.03
2023-04-28T06:50:38.430Z,16.46
2023-04-28T06:53:07.183Z,16.56
2023-04-28T06:55:34.085Z,16.43
2023-04-28T06:58:00.922Z,16.40
2023-04-28T07:00:28.192Z,16.38
2023-04-28T07:02:55.351Z,16.94
2023-04-28T07:05:22.359Z,16.94
2023-04-28T07:07:49.135Z,17.15
2023-04-28T07:10:16.095Z,17.16
2023-04-28T07:12:42.922Z,16.76
2023-04-28T07:15:10.457Z,16.49
2023-04-28T07:17:37.760Z,15.82
2023-04-28T07:20:06.737Z,16.06
2023-04-28T07:22:33.948Z,16.61
2023-04-28T07:25:00.782Z,16.76
2023-04-28T07:27:27.700Z,16.75
2023-04-28T07:29:54.581Z,16.75
2023-04-28T07:32:21.515Z,16.83
2023-04-28T07:34:48.258Z,17.51
2023-04-28T07:37:15.610Z,17.39
2023-04-28T07:39:42.630Z,16.71
2023-04-28T07:42:09.548Z,16.68
2023-04-28T07:44:36.308Z,16.36
2023-04-28T07:47:03.037Z,16.52
2023-04-28T07:49:29.832Z,17.18
2023-04-28T07:51:56.765Z,17.30
2023-04-28T07:54:23.570Z,17.39
2023-04-28T07:56:51.068Z,16.82
2023-04-28T07:59:19.075Z,16.86
2023-04-28T08:01:45.853Z,17.10
2023-04-28T08:04:13.309Z,17.32
2023-04-28T08:06:40.466Z,17.14
2023-04-28T08:09:07.243Z,16.95
2023-04-28T08:11:34.128Z,17.31
2023-04-28T08:14:02.478Z,17.12
2023-04-28T08:16:29.649Z,16.90
2023-04-28T08:18:56.727Z,16.78
2023-04-28T08:21:23.491Z,16.83
2023-04-28T08:23:50.267Z,16.69
2023-04-28T08:26:17.017Z,16.92
2023-04-28T08:28:45.186Z,16.93
2023-04-28T08:31:12.898Z,17.43
2023-04-28T08:33:43.777Z,17.91
2023-04-28T08:36:11.474Z,18.33
2023-04-28T08:38:38.707Z,18.17
2023-04-28T08:41:05.498Z,17.42
2023-04-28T08:43:35.995Z,16.74
2023-04-28T08:46:05.791Z,16.08
2023-04-28T08:48:40.621Z,15.56
2023-04-28T08:51:07.786Z,15.44
2023-04-28T08:53:59.441Z,15.75
2023-04-28T08:56:26.936Z,16.54
2023-04-28T08:58:53.624Z,16.48
2023-04-28T09:01:20.574Z,16.39
2023-04-28T09:03:48.769Z,16.29
2023-04-28T09:06:15.521Z,15.79
2023-04-28T09:08:42.393Z,15.50
2023-04-28T09:11:11.412Z,15.75
2023-04-28T09:13:39.435Z,16.74
2023-04-28T09:16:06.743Z,17.25
2023-04-28T09:18:33.533Z,16.88
2023-04-28T09:21:07.665Z,16.32
2023-04-28T09:23:35.819Z,15.73
2023-04-28T09:26:04.368Z,16.21
2023-04-28T09:28:32.151Z,16.46
2023-04-28T09:30:58.904Z,16.43
2023-04-28T09:33:25.826Z,15.91
2023-04-28T09:35:52.976Z,15.84
2023-04-28T09:38:20.914Z,15.78
2023-04-28T09:40:58.363Z,15.55
2023-04-28T09:43:32.809Z,15.88
2023-04-28T09:46:01.562Z,16.89
2023-04-28T09:48:28.554Z,17.38
2023-04-28T09:50:56.176Z,16.68
2023-04-28T09:53:24.203Z,16.26
2023-04-28T09:55:56.374Z,16.32
2023-04-28T09:58:24.266Z,17.04
2023-04-28T10:00:54.914Z,17.54
2023-04-28T10:03:24.271Z,17.97
2023-04-28T10:05:52.968Z,17.30
2023-04-28T10:08:22.944Z,16.82
2023-04-28T10:10:52.414Z,17.20
2023-04-28T10:13:19.910Z,17.66
2023-04-28T10:15:48.240Z,17.96
2023-04-28T10:18:17.845Z,17.91
2023-04-28T10:20:46.035Z,17.11
2023-04-28T10:23:31.331Z,17.01
2023-04-28T10:25:59.355Z,17.75
2023-04-28T10:28:26.409Z,18.28
2023-04-28T10:31:10.784Z,19.28
2023-04-28T10:33:58.781Z,19.13
2023-04-28T10:36:46.729Z,18.16
2023-04-28T10:39:13.677Z,17.80
2023-04-28T10:41:41.300Z,17.15
2023-04-28T10:44:43.800Z,17.45
2023-04-28T10:47:11.517Z,18.60
2023-04-28T10:49:59.056Z,18.00
2023-04-28T10:52:39.074Z,17.59
2023-04-28T10:55:32.137Z,17.67
2023-04-28T10:58:19.858Z,17.11
2023-04-28T11:00:47.304Z,17.60
2023-04-28T11:03:46.638Z,18.50
2023-04-28T11:06:20.856Z,18.19
2023-04-28T11:08:47.549Z,17.37
2023-04-28T11:11:18.934Z,16.86
2023-04-28T11:13:46.577Z,16.99
2023-04-28T11:16:21.077Z,17.11
2023-04-28T11:18:58.830Z,17.43
2023-04-28T11:21:27.612Z,17.82
2023-04-28T11:23:54.619Z,18.05
2023-04-28T11:26:23.114Z,18.09
2023-04-28T11:28:51.668Z,18.16
2023-04-28T11:31:20.220Z,17.71
2023-04-28T11:34:15.097Z,17.32
2023-04-28T11:36:42.466Z,17.28
2023-04-28T11:39:10.799Z,17.20
2023-04-28T11:41:40.242Z,17.36
2023-04-28T11:44:13.186Z,16.97
2023-04-28T11:46:56.722Z,17.33
2023-04-28T11:49:28.467Z,17.57
2023-04-28T11:51:56.149Z,17.34
2023-04-28T11:54:28.888Z,17.24
2023-04-28T11:56:57.019Z,17.07
2023-04-28T11:59:25.614Z,17.17
2023-04-28T12:02:10.886Z,17.10
2023-04-28T12:04:39.107Z,17.09
2023-04-28T12:07:13.387Z,17.46
2023-04-28T12:09:42.809Z,17.66
2023-04-28T12:12:11.882Z,17.70
2023-04-28T12:14:58.846Z,17.98
2023-04-28T12:17:41.790Z,17.80
2023-04-28T12:20:12.498Z,17.93
2023-04-28T12:22:50.025Z,18.34
2023-04-28T12:25:18.800Z,18.75
2023-04-28T12:28:05.044Z,18.37
2023-04-28T12:30:41.450Z,18.09
2023-04-28T12:33:24.584Z,17.52
2023-04-28T12:35:51.828Z,17.42
2023-04-28T12:38:18.724Z,17.48
2023-04-28T12:40:46.122Z,17.76
2023-04-28T12:43:12.942Z,17.87
2023-04-28T12:45:40.664Z,17.18
2023-04-28T12:48:08.582Z,17.71
2023-04-28T12:50:35.442Z,17.40
2023-04-28T12:53:02.576Z,17.21
2023-04-28T12:55:29.979Z,17.53
2023-04-28T12:57:56.902Z,17.80
2023-04-28T13:00:24.432Z,17.56
2023-04-28T13:02:52.455Z,17.50
2023-04-28T13:05:19.396Z,17.07
2023-04-28T13:07:47.075Z,16.88
2023-04-28T13:10:13.913Z,17.06
2023-04-28T13:12:41.039Z,17.32
2023-04-28T13:15:08.582Z,17.20
2023-04-28T13:17:35.654Z,17.15
2023-04-28T13:20:03.479Z,18.24
2023-04-28T13:22:30.834Z,18.58
2023-04-28T13:24:57.875Z,17.33
2023-04-28T13:27:29.855Z,18.84
2023-04-28T13:29:58.657Z,20.19
2023-04-28T13:32:27.382Z,20.56
2023-04-28T13:34:54.231Z,20.19
2023-04-28T13:37:21.049Z,19.88
2023-04-28T13:39:48.287Z,20.33
2023-04-28T13:42:15.630Z,19.95
2023-04-28T13:44:42.641Z,19.78
2023-04-28T13:47:10.520Z,20.17
2023-04-28T13:49:39.162Z,20.07
2023-04-28T13:52:06.147Z,19.43
2023-04-28T13:54:33.119Z,19.55
2023-04-28T13:57:00.740Z,19.16
2023-04-28T13:59:27.420Z,18.68
2023-04-28T14:01:54.157Z,18.71
2023-04-28T14:04:21.208Z,18.53
2023-04-28T14:06:49.985Z,18.95
2023-04-28T14:09:16.897Z,18.75
2023-04-28T14:11:45.915Z,18.11
2023-04-28T14:14:13.491Z,18.09
2023-04-28T14:16:40.454Z,18.05
2023-04-28T14:19:07.995Z,18.06
2023-04-28T14:21:36.277Z,18.05
2023-04-28T14:24:03.475Z,18.13
2023-04-28T14:26:30.276Z,17.38
2023-04-28T14:28:57.374Z,17.50
2023-04-28T14:31:24.425Z,17.84
2023-04-28T14:33:51.139Z,18.23
2023-04-28T14:36:17.911Z,17.79
2023-04-28T14:38:44.676Z,17.76
2023-04-28T14:41:11.493Z,18.26
2023-04-28T14:43:38.323Z,17.92
2023-04-28T14:46:05.797Z,17.90
2023-04-28T14:48:33.223Z,18.83
2023-04-28T14:51:01.000Z,19.38
2023-04-28T14:53:28.030Z,18.93
2023-04-28T14:55:59.436Z,19.17
2023-04-28T14:58:35.350Z,19.19
2023-04-28T15:01:02.821Z,19.66
2023-04-28T15:03:29.980Z,19.35
2023-04-28T15:05:57.002Z,19.01
2023-04-28T15:08:24.018Z,19.14
2023-04-28T15:10:51.203Z,19.78
2023-04-28T15:13:17.974Z,19.72
2023-04-28T15:15:44.813Z,19.43
2023-04-28T15:18:11.612Z,19.61
2023-04-28T15:20:38.707Z,19.83
2023-04-28T15:23:05.675Z,20.03
2023-04-28T15:25:33.160Z,20.23
2023-04-28T15:28:00.155Z,19.78
2023-04-28T15:30:26.988Z,19.95
2023-04-28T15:32:54.033Z,20.10
2023-04-28T15:35:21.687Z,19.66
2023-04-28T15:37:51.381Z,19.30
2023-04-28T15:40:18.809Z,19.07
2023-04-28T15:42:48.802Z,19.14
2023-04-28T15:45:16.194Z,18.81
2023-04-28T15:47:43.121Z,18.65
2023-04-28T15:50:10.303Z,18.55
2023-04-28T15:52:40.145Z,18.29
2023-04-28T15:55:07.882Z,18.27
2023-04-28T15:57:35.909Z,17.74
2023-04-28T16:00:06.324Z,17.69
2023-04-28T16:02:37.073Z,17.56
2023-04-28T16:05:04.546Z,17.51
2023-04-28T16:07:37.532Z,17.38
2023-04-28T16:10:09.184Z,17.34
2023-04-28T16:12:36.250Z,17.80
2023-04-28T16:15:03.529Z,17.91
2023-04-28T16:17:30.660Z,17.89
2023-04-28T16:19:57.685Z,17.60
2023-04-28T16:22:26.644Z,17.49
2023-04-28T16:24:56.206Z,17.90
2023-04-28T16:27:23.102Z,17.58
2023-04-28T16:29:50.489Z,17.68
2023-04-28T16:32:17.283Z,17.94
2023-04-28T16:34:44.534Z,17.88
2023-04-28T16:37:11.406Z,17.94
2023-04-28T16:39:38.490Z,17.58
2023-04-28T16:42:05.535Z,17.44
2023-04-28T16:44:32.409Z,16.91
2023-04-28T16:46:59.245Z,16.80
2023-04-28T16:49:26.093Z,16.79
2023-04-28T16:51:59.240Z,16.52
2023-04-28T16:54:27.586Z,16.77
2023-04-28T16:56:55.402Z,16.93
2023-04-28T16:59:22.314Z,16.88
2023-04-28T17:01:49.335Z,16.76
2023-04-28T17:04:17.292Z,16.48
2023-04-28T17:06:45.008Z,16.30
2023-04-28T17:09:12.249Z,16.29
2023-04-28T17:11:39.086Z,16.42
2023-04-28T17:14:06.447Z,16.08
2023-04-28T17:16:33.877Z,15.57
2023-04-28T17:19:01.196Z,15.33
2023-04-28T17:21:28.762Z,15.45
2023-04-28T17:23:57.081Z,15.38
2023-04-28T17:26:24.697Z,15.06
2023-04-28T17:28:52.554Z,14.93
2023-04-28T17:31:19.379Z,14.91
2023-04-28T17:33:46.934Z,14.07
2023-04-28T17:36:13.893Z,14.04
2023-04-28T17:38:40.877Z,14.27
2023-04-28T17:41:07.884Z,14.12
2023-04-28T17:43:36.163Z,14.31
2023-04-28T17:46:03.410Z,14.27
2023-04-28T17:48:30.869Z,13.35
2023-04-28T17:50:57.828Z,12.62
2023-04-28T17:53:25.063Z,12.57
2023-04-28T17:55:51.907Z,12.17
2023-04-28T17:58:19.570Z,12.10
2023-04-28T18:00:46.413Z,12.25
2023-04-28T18:03:13.348Z,11.65
2023-04-28T18:05:40.867Z,11.50
2023-04-28T18:08:07.621Z,11.49
2023-04-28T18:10:34.807Z,11.55
2023-04-28T18:13:01.827Z,11.49
2023-04-28T18:15:28.784Z,11.77
2023-04-28T18:17:56.395Z,11.26
2023-04-28T18:20:23.758Z,11.33
2023-04-28T18:22:50.914Z,11.47
2023-04-28T18:25:18.623Z,11.46
2023-04-28T18:27:45.560Z,11.47
2023-04-28T18:30:12.808Z,11.56
2023-04-28T18:32:40.270Z,11.58
2023-04-28T18:35:07.230Z,11.42
2023-04-28T18:37:36.427Z,11.41
2023-04-28T18:40:03.818Z,11.44
2023-04-28T18:42:32.083Z,11.96
2023-04-28T18:44:59.124Z,12.11
2023-04-28T18:47:25.957Z,11.74
2023-04-28T18:49:53.388Z,11.35
2023-04-28T18:52:20.239Z,11.48
2023-04-28T18:54:47.281Z,11.18
2023-04-28T18:57:16.577Z,11.04
2023-04-28T18:59:43.548Z,10.90
2023-04-28T19:02:10.403Z,11.08
2023-04-28T19:04:41.448Z,10.78
2023-04-28T19:07:08.549Z,10.96
2023-04-28T19:09:35.599Z,10.82
2023-04-28T19:12:02.381Z,10.75
2023-04-28T19:14:29.494Z,10.64
2023-04-28T19:16:56.368Z,10.46
2023-04-28T19:19:23.400Z,10.48
2023-04-28T19:21:50.321Z,10.49
2023-04-28T19:24:17.366Z,10.60
2023-04-28T19:26:44.308Z,10.72
2023-04-28T19:29:14.373Z,10.67
2023-04-28T19:31:41.145Z,10.61
2023-04-28T19:34:08.016Z,10.37
2023-04-28T19:36:35.154Z,10.40
2023-04-28T19:39:01.954Z,10.44
2023-04-28T19:41:29.154Z,10.41
2023-04-28T19:43:56.143Z,10.34
2023-04-28T19:46:22.958Z,10.29
2023-04-28T19:48:49.984Z,10.26
2023-04-28T19:51:17.078Z,10.20
2023-04-28T19:53:45.771Z,10.15
2023-04-28T19:56:13.280Z,10.09
2023-04-28T19:58:41.031Z,10.08
2023-04-28T20:01:08.230Z,10.13
2023-04-28T20:03:35.665Z,10.35
2023-04-28T20:06:03.305Z,10.18
2023-04-28T20:08:30.414Z,10.19
2023-04-28T20:10:57.560Z,9.97
2023-04-28T20:13:24.724Z,9.91
2023-04-28T20:15:52.590Z,9.88
2023-04-28T20:18:19.562Z,9.85
2023-04-28T20:20:46.341Z,9.99
2023-04-28T20:23:13.261Z,10.07
2023-04-28T20:25:40.830Z,10.14
2023-04-28T20:28:07.793Z,10.00
2023-04-28T20:30:36.128Z,9.97
2023-04-28T20:33:03.416Z,10.14
2023-04-28T20:35:30.326Z,10.29
2023-04-28T20:37:57.577Z,10.18
2023-04-28T20:40:24.524Z,10.21
2023-04-28T20:42:51.344Z,10.11
2023-04-28T20:45:18.172Z,9.95
2023-04-28T20:47:45.206Z,10.03
2023-04-28T20:50:12.836Z,10.15
2023-04-28T20:52:39.725Z,9.88
2023-04-28T20:55:07.909Z,9.96
2023-04-28T20:57:34.871Z,10.15
2023-04-28T21:00:02.018Z,10.14
2023-04-28T21:02:29.142Z,9.84
2023-04-28T21:04:56.041Z,9.87
2023-04-28T21:07:23.018Z,9.83
2023-04-28T21:09:50.437Z,9.84
2023-04-28T21:12:17.545Z,9.66
2023-04-28T21:14:44.638Z,9.77
2023-04-28T21:17:11.449Z,9.97
2023-04-28T21:19:38.267Z,10.02
2023-04-28T21:22:05.139Z,9.95
2023-04-28T21:24:32.153Z,9.82
2023-04-28T21:26:59.030Z,9.90
2023-04-28T21:29:26.993Z,10.21
2023-04-28T21:31:53.980Z,10.21
2023-04-28T21:34:21.084Z,10.12
2023-04-28T21:36:47.928Z,10.00
2023-04-28T21:39:14.985Z,9.88
2023-04-28T21:41:42.290Z,9.64
2023-04-28T21:44:09.137Z,9.64
2023-04-28T21:46:36.499Z,9.88
2023-04-28T21:49:03.469Z,9.88
2023-04-28T21:51:32.076Z,9.98
2023-04-28T21:53:58.884Z,9.98
2023-04-28T21:56:25.935Z,9.81
2023-04-28T21:58:52.879Z,9.76
2023-04-28T22:01:19.779Z,9.69
2023-04-28T22:03:47.185Z,9.71
2023-04-28T22:06:14.198Z,9.75
2023-04-28T22:08:41.102Z,9.73
2023-04-28T22:11:09.033Z,9.15
2023-04-28T22:13:36.595Z,8.94
2023-04-28T22:16:04.146Z,9.14
2023-04-28T22:18:31.208Z,9.30
2023-04-28T22:20:58.074Z,9.30
2023-04-28T22:23:24.962Z,9.51
2023-04-28T22:25:51.986Z,9.48
2023-04-28T22:28:18.878Z,9.15
2023-04-28T22:30:47.047Z,9.20
2023-04-28T22:33:13.902Z,9.20
2023-04-28T22:35:40.774Z,9.23
2023-04-28T22:38:07.521Z,9.29
2023-04-28T22:40:34.526Z,9.30
2023-04-28T22:43:01.307Z,9.30
2023-04-28T22:45:28.134Z,9.41
2023-04-28T22:47:55.738Z,9.38
2023-04-28T22:50:23.221Z,9.24
2023-04-28T22:52:49.960Z,9.18
2023-04-28T22:55:18.845Z,8.91
2023-04-28T22:57:45.804Z,8.86
2023-04-28T23:00:15.508Z,9.05
2023-04-28T23:02:42.677Z,8.75
2023-04-28T23:05:10.204Z,8.70
2023-04-28T23:07:37.560Z,8.72
2023-04-28T23:10:06.351Z,8.58
2023-04-28T23:12:33.575Z,8.59
2023-04-28T23:15:00.667Z,8.42
2023-04-28T23:17:28.211Z,8.47
2023-04-28T23:19:55.356Z,8.61
2023-04-28T23:22:22.256Z,8.50
2023-04-28T23:24:49.256Z,8.56
2023-04-28T23:27:16.087Z,8.40
2023-04-28T23:29:42.927Z,8.41
2023-04-28T23:32:10.398Z,8.44
2023-04-28T23:34:38.407Z,8.30
2023-04-28T23:37:06.016Z,8.17
2023-04-28T23:39:33.312Z,8.17
2023-04-28T23:42:01.189Z,8.48
2023-04-28T23:44:28.088Z,8.52
2023-04-28T23:46:56.197Z,8.22
2023-04-28T23:49:23.601Z,7.91
2023-04-28T23:51:50.547Z,7.69
2023-04-28T23:54:17.352Z,7.93
2023-04-28T23:56:44.084Z,7.65
2023-04-28T23:59:10.863Z,7.41
